sensor_id;sensor_type;location;lat;lon;timestamp;pressure;altitude;pressure_sealevel;temperature;humidity
55022;BME280;68328;35.990;-86.756;2023-04-10T00:00:17;99852.91;;;23.36;23.50
55022;BME280;68328;35.990;-86.756;2023-04-10T00:02:42;99853.79;;;23.35;24.98
55022;BME280;68328;35.990;-86.756;2023-04-10T00:05:09;99857.38;;;22.84;24.50
55022;BME280;68328;35.990;-86.756;2023-04-10T00:07:33;99853.41;;;22.73;26.99
55022;BME280;68328;35.990;-86.756;2023-04-10T00:09:58;99850.21;;;22.60;24.24
55022;BME280;68328;35.990;-86.756;2023-04-10T00:12:23;99852.49;;;22.47;28.04
55022;BME280;68328;35.990;-86.756;2023-04-10T00:14:49;99853.30;;;22.12;27.30
55022;BME280;68328;35.990;-86.756;2023-04-10T00:17:15;99850.28;;;21.93;26.41
55022;BME280;68328;35.990;-86.756;2023-04-10T00:19:40;99850.79;;;22.06;28.38
55022;BME280;68328;35.990;-86.756;2023-04-10T00:22:05;99851.90;;;21.83;30.33
55022;BME280;68328;35.990;-86.756;2023-04-10T00:24:30;99850.85;;;21.50;30.21
55022;BME280;68328;35.990;-86.756;2023-04-10T00:26:56;99853.27;;;21.59;30.65
55022;BME280;68328;35.990;-86.756;2023-04-10T00:29:22;99855.93;;;21.08;29.42
55022;BME280;68328;35.990;-86.756;2023-04-10T00:31:48;99855.07;;;20.83;28.00
55022;BME280;68328;35.990;-86.756;2023-04-10T00:34:12;99855.77;;;20.88;24.70
55022;BME280;68328;35.990;-86.756;2023-04-10T00:36:37;99859.53;;;20.94;29.95
55022;BME280;68328;35.990;-86.756;2023-04-10T00:39:03;99862.35;;;20.77;31.38
55022;BME280;68328;35.990;-86.756;2023-04-10T00:41:28;99867.50;;;20.54;32.27
55022;BME280;68328;35.990;-86.756;2023-04-10T00:43:55;99869.97;;;20.67;30.88
55022;BME280;68328;35.990;-86.756;2023-04-10T00:46:19;99872.35;;;20.57;30.74
55022;BME280;68328;35.990;-86.756;2023-04-10T00:48:44;99871.01;;;20.15;30.32
55022;BME280;68328;35.990;-86.756;2023-04-10T00:51:11;99875.10;;;20.02;30.99
55022;BME280;68328;35.990;-86.756;2023-04-10T00:53:34;99877.45;;;20.07;30.17
55022;BME280;68328;35.990;-86.756;2023-04-10T00:56:02;99876.97;;;19.96;27.54
55022;BME280;68328;35.990;-86.756;2023-04-10T00:58:26;99879.81;;;19.94;27.83
55022;BME280;68328;35.990;-86.756;2023-04-10T01:00:51;99880.31;;;19.65;27.45
55022;BME280;68328;35.990;-86.756;2023-04-10T01:03:17;99881.60;;;19.81;27.75
55022;BME280;68328;35.990;-86.756;2023-04-10T01:05:46;99881.22;;;19.67;32.38
55022;BME280;68328;35.990;-86.756;2023-04-10T01:08:13;99879.77;;;19.87;27.26
55022;BME280;68328;35.990;-86.756;2023-04-10T01:10:37;99879.43;;;19.55;27.63
55022;BME280;68328;35.990;-86.756;2023-04-10T01:13:05;99882.77;;;19.47;29.21
55022;BME280;68328;35.990;-86.756;2023-04-10T01:15:24;99887.34;;;19.61;28.23
55022;BME280;68328;35.990;-86.756;2023-04-10T01:17:51;99892.61;;;19.43;27.74
55022;BME280;68328;35.990;-86.756;2023-04-10T01:20:15;99897.44;;;19.58;29.01
55022;BME280;68328;35.990;-86.756;2023-04-10T01:22:48;99903.12;;;19.70;31.72
55022;BME280;68328;35.990;-86.756;2023-04-10T01:27:40;99908.04;;;18.86;29.55
55022;BME280;68328;35.990;-86.756;2023-04-10T01:29:57;99909.55;;;18.92;29.49
55022;BME280;68328;35.990;-86.756;2023-04-10T01:32:21;99910.94;;;19.02;30.78
55022;BME280;68328;35.990;-86.756;2023-04-10T01:34:50;99910.65;;;19.04;28.48
55022;BME280;68328;35.990;-86.756;2023-04-10T01:37:15;99911.89;;;18.50;31.14
55022;BME280;68328;35.990;-86.756;2023-04-10T01:39:40;99915.75;;;18.84;31.79
55022;BME280;68328;35.990;-86.756;2023-04-10T01:42:04;99917.66;;;18.68;32.08
55022;BME280;68328;35.990;-86.756;2023-04-10T01:44:29;99917.85;;;18.82;31.47
55022;BME280;68328;35.990;-86.756;2023-04-10T01:46:54;99921.73;;;18.16;31.52
55022;BME280;68328;35.990;-86.756;2023-04-10T01:49:18;99924.06;;;18.62;30.15
55022;BME280;68328;35.990;-86.756;2023-04-10T01:51:45;99929.20;;;18.28;34.08
55022;BME280;68328;35.990;-86.756;2023-04-10T01:54:11;99927.98;;;18.46;32.32
55022;BME280;68328;35.990;-86.756;2023-04-10T01:56:35;99930.69;;;18.09;33.40
55022;BME280;68328;35.990;-86.756;2023-04-10T01:59:01;99934.26;;;18.47;32.93
55022;BME280;68328;35.990;-86.756;2023-04-10T02:01:27;99941.92;;;18.43;34.76
55022;BME280;68328;35.990;-86.756;2023-04-10T02:03:52;99943.36;;;18.19;33.93
55022;BME280;68328;35.990;-86.756;2023-04-10T02:06:24;99945.06;;;18.14;34.37
55022;BME280;68328;35.990;-86.756;2023-04-10T02:08:50;99946.26;;;18.14;32.84
55022;BME280;68328;35.990;-86.756;2023-04-10T02:11:14;99950.59;;;18.37;32.11
55022;BME280;68328;35.990;-86.756;2023-04-10T02:13:35;99956.18;;;18.11;32.80
55022;BME280;68328;35.990;-86.756;2023-04-10T02:16:05;99956.12;;;18.29;31.23
55022;BME280;68328;35.990;-86.756;2023-04-10T02:18:26;99959.45;;;17.97;31.93
55022;BME280;68328;35.990;-86.756;2023-04-10T02:20:51;99961.40;;;18.11;31.66
55022;BME280;68328;35.990;-86.756;2023-04-10T02:23:16;99965.54;;;18.05;31.90
55022;BME280;68328;35.990;-86.756;2023-04-10T02:25:42;99964.86;;;18.05;33.42
55022;BME280;68328;35.990;-86.756;2023-04-10T02:28:08;99969.36;;;17.96;34.23
55022;BME280;68328;35.990;-86.756;2023-04-10T02:30:33;99973.35;;;17.85;34.15
55022;BME280;68328;35.990;-86.756;2023-04-10T02:32:59;99972.25;;;17.70;32.32
55022;BME280;68328;35.990;-86.756;2023-04-10T02:35:24;99973.43;;;17.62;33.96
55022;BME280;68328;35.990;-86.756;2023-04-10T02:37:48;99976.04;;;17.59;34.48
55022;BME280;68328;35.990;-86.756;2023-04-10T02:40:14;99980.45;;;17.63;33.29
55022;BME280;68328;35.990;-86.756;2023-04-10T02:42:40;99983.22;;;17.57;35.09
55022;BME280;68328;35.990;-86.756;2023-04-10T02:45:05;99985.54;;;17.17;32.30
55022;BME280;68328;35.990;-86.756;2023-04-10T02:47:29;99985.72;;;17.15;33.40
55022;BME280;68328;35.990;-86.756;2023-04-10T02:49:55;99984.35;;;17.43;33.92
55022;BME280;68328;35.990;-86.756;2023-04-10T02:52:20;99981.27;;;16.95;34.65
55022;BME280;68328;35.990;-86.756;2023-04-10T02:54:45;99983.65;;;17.00;34.19
55022;BME280;68328;35.990;-86.756;2023-04-10T02:57:11;99981.96;;;17.19;34.63
55022;BME280;68328;35.990;-86.756;2023-04-10T02:59:36;99985.19;;;17.07;33.32
55022;BME280;68328;35.990;-86.756;2023-04-10T03:02:03;99986.21;;;17.17;32.97
55022;BME280;68328;35.990;-86.756;2023-04-10T03:04:30;99993.47;;;16.75;34.61
55022;BME280;68328;35.990;-86.756;2023-04-10T03:06:53;99993.66;;;17.10;33.33
55022;BME280;68328;35.990;-86.756;2023-04-10T03:09:19;99995.76;;;16.62;34.69
55022;BME280;68328;35.990;-86.756;2023-04-10T03:11:44;99995.16;;;17.05;33.56
55022;BME280;68328;35.990;-86.756;2023-04-10T03:14:10;99995.40;;;16.96;33.01
55022;BME280;68328;35.990;-86.756;2023-04-10T03:16:35;99998.85;;;16.99;34.20
55022;BME280;68328;35.990;-86.756;2023-04-10T03:19:01;99996.42;;;16.77;34.39
55022;BME280;68328;35.990;-86.756;2023-04-10T03:21:26;100000.73;;;16.67;32.25
55022;BME280;68328;35.990;-86.756;2023-04-10T03:23:52;100001.65;;;16.52;32.17
55022;BME280;68328;35.990;-86.756;2023-04-10T03:26:17;100001.02;;;16.39;30.71
55022;BME280;68328;35.990;-86.756;2023-04-10T03:28:43;100002.90;;;16.42;33.52
55022;BME280;68328;35.990;-86.756;2023-04-10T03:31:09;100005.15;;;16.50;33.49
55022;BME280;68328;35.990;-86.756;2023-04-10T03:33:34;100009.73;;;16.18;31.35
55022;BME280;68328;35.990;-86.756;2023-04-10T03:35:59;100012.49;;;16.09;32.17
55022;BME280;68328;35.990;-86.756;2023-04-10T03:38:24;100015.89;;;16.04;34.52
55022;BME280;68328;35.990;-86.756;2023-04-10T03:40:50;100016.28;;;16.17;32.17
55022;BME280;68328;35.990;-86.756;2023-04-10T03:43:16;100014.60;;;15.92;35.24
55022;BME280;68328;35.990;-86.756;2023-04-10T03:45:41;100013.45;;;15.90;31.47
55022;BME280;68328;35.990;-86.756;2023-04-10T03:48:07;100017.14;;;16.33;33.34
55022;BME280;68328;35.990;-86.756;2023-04-10T03:50:32;100016.77;;;15.85;34.45
55022;BME280;68328;35.990;-86.756;2023-04-10T03:52:58;100016.25;;;16.12;33.70
55022;BME280;68328;35.990;-86.756;2023-04-10T03:55:23;100017.17;;;16.29;33.86
55022;BME280;68328;35.990;-86.756;2023-04-10T03:57:49;100017.02;;;15.86;35.66
55022;BME280;68328;35.990;-86.756;2023-04-10T04:00:14;100015.31;;;15.52;32.75
55022;BME280;68328;35.990;-86.756;2023-04-10T04:02:39;100015.36;;;15.83;34.51
55022;BME280;68328;35.990;-86.756;2023-04-10T04:05:05;100014.33;;;15.80;35.58
55022;BME280;68328;35.990;-86.756;2023-04-10T04:07:29;100012.08;;;15.66;31.84
55022;BME280;68328;35.990;-86.756;2023-04-10T04:09:54;100014.88;;;15.82;31.01
55022;BME280;68328;35.990;-86.756;2023-04-10T04:12:20;100015.55;;;15.52;33.76
55022;BME280;68328;35.990;-86.756;2023-04-10T04:14:45;100015.99;;;15.72;33.87
55022;BME280;68328;35.990;-86.756;2023-04-10T04:17:11;100016.16;;;15.46;35.80
55022;BME280;68328;35.990;-86.756;2023-04-10T04:19:36;100016.68;;;15.63;33.31
55022;BME280;68328;35.990;-86.756;2023-04-10T04:22:01;100016.51;;;15.36;33.79
55022;BME280;68328;35.990;-86.756;2023-04-10T04:24:27;100016.74;;;15.58;36.58
55022;BME280;68328;35.990;-86.756;2023-04-10T04:26:52;100019.04;;;15.52;34.84
55022;BME280;68328;35.990;-86.756;2023-04-10T04:29:18;100017.10;;;15.44;34.00
55022;BME280;68328;35.990;-86.756;2023-04-10T04:31:43;100017.30;;;15.38;32.72
55022;BME280;68328;35.990;-86.756;2023-04-10T04:34:08;100015.35;;;15.29;31.61
55022;BME280;68328;35.990;-86.756;2023-04-10T04:36:34;100014.97;;;15.20;34.04
55022;BME280;68328;35.990;-86.756;2023-04-10T04:39:00;100012.43;;;15.14;32.62
55022;BME280;68328;35.990;-86.756;2023-04-10T04:41:24;100014.13;;;15.18;34.89
55022;BME280;68328;35.990;-86.756;2023-04-10T04:43:50;100015.68;;;15.12;33.78
55022;BME280;68328;35.990;-86.756;2023-04-10T04:46:15;100016.24;;;15.05;34.70
55022;BME280;68328;35.990;-86.756;2023-04-10T04:48:41;100014.71;;;15.32;34.21
55022;BME280;68328;35.990;-86.756;2023-04-10T04:51:08;100017.40;;;14.80;34.61
55022;BME280;68328;35.990;-86.756;2023-04-10T04:53:32;100019.66;;;14.94;33.53
55022;BME280;68328;35.990;-86.756;2023-04-10T04:55:57;100020.79;;;15.05;31.60
55022;BME280;68328;35.990;-86.756;2023-04-10T04:58:23;100021.32;;;14.86;32.14
55022;BME280;68328;35.990;-86.756;2023-04-10T05:00:50;100021.88;;;14.51;32.31
55022;BME280;68328;35.990;-86.756;2023-04-10T05:03:14;100023.88;;;15.03;33.26
55022;BME280;68328;35.990;-86.756;2023-04-10T05:05:41;100029.11;;;14.89;37.18
55022;BME280;68328;35.990;-86.756;2023-04-10T05:08:05;100029.91;;;14.66;34.72
55022;BME280;68328;35.990;-86.756;2023-04-10T05:10:30;100025.62;;;15.18;36.25
55022;BME280;68328;35.990;-86.756;2023-04-10T05:12:55;100027.45;;;15.10;34.47
55022;BME280;68328;35.990;-86.756;2023-04-10T05:15:21;100029.33;;;14.82;35.90
55022;BME280;68328;35.990;-86.756;2023-04-10T05:17:46;100032.78;;;15.03;34.77
55022;BME280;68328;35.990;-86.756;2023-04-10T05:20:12;100033.82;;;14.57;33.49
55022;BME280;68328;35.990;-86.756;2023-04-10T05:22:37;100035.44;;;14.75;33.16
55022;BME280;68328;35.990;-86.756;2023-04-10T05:25:02;100037.09;;;14.49;36.21
55022;BME280;68328;35.990;-86.756;2023-04-10T05:27:28;100037.33;;;14.53;34.36
55022;BME280;68328;35.990;-86.756;2023-04-10T05:29:53;100036.86;;;14.22;35.18
55022;BME280;68328;35.990;-86.756;2023-04-10T05:32:18;100036.79;;;14.25;34.16
55022;BME280;68328;35.990;-86.756;2023-04-10T05:34:44;100035.21;;;14.55;36.41
55022;BME280;68328;35.990;-86.756;2023-04-10T05:37:09;100029.70;;;14.52;36.08
55022;BME280;68328;35.990;-86.756;2023-04-10T05:39:35;100030.55;;;14.28;34.96
55022;BME280;68328;35.990;-86.756;2023-04-10T05:41:59;100026.04;;;14.45;36.60
55022;BME280;68328;35.990;-86.756;2023-04-10T05:44:25;100023.79;;;14.38;37.27
55022;BME280;68328;35.990;-86.756;2023-04-10T05:46:50;100023.58;;;13.96;37.13
55022;BME280;68328;35.990;-86.756;2023-04-10T05:49:16;100027.13;;;14.21;35.83
55022;BME280;68328;35.990;-86.756;2023-04-10T05:51:41;100027.44;;;14.28;36.56
55022;BME280;68328;35.990;-86.756;2023-04-10T05:54:07;100027.81;;;13.98;35.00
55022;BME280;68328;35.990;-86.756;2023-04-10T05:56:32;100029.44;;;14.04;35.94
55022;BME280;68328;35.990;-86.756;2023-04-10T05:58:57;100032.26;;;13.99;37.19
55022;BME280;68328;35.990;-86.756;2023-04-10T06:01:23;100032.49;;;13.95;35.37
55022;BME280;68328;35.990;-86.756;2023-04-10T06:03:48;100034.44;;;13.96;36.32
55022;BME280;68328;35.990;-86.756;2023-04-10T06:06:13;100037.73;;;13.94;36.75
55022;BME280;68328;35.990;-86.756;2023-04-10T06:08:39;100041.27;;;14.21;36.08
55022;BME280;68328;35.990;-86.756;2023-04-10T06:11:04;100040.53;;;14.20;38.08
55022;BME280;68328;35.990;-86.756;2023-04-10T06:13:29;100043.25;;;13.92;35.91
55022;BME280;68328;35.990;-86.756;2023-04-10T06:15:54;100044.09;;;14.05;36.16
55022;BME280;68328;35.990;-86.756;2023-04-10T06:18:20;100044.51;;;13.82;33.36
55022;BME280;68328;35.990;-86.756;2023-04-10T06:20:45;100044.70;;;13.80;34.71
55022;BME280;68328;35.990;-86.756;2023-04-10T06:23:11;100044.90;;;13.99;37.61
55022;BME280;68328;35.990;-86.756;2023-04-10T06:25:35;100044.38;;;13.76;35.98
55022;BME280;68328;35.990;-86.756;2023-04-10T06:28:01;100043.87;;;14.18;37.49
55022;BME280;68328;35.990;-86.756;2023-04-10T06:30:26;100042.93;;;13.83;35.32
55022;BME280;68328;35.990;-86.756;2023-04-10T06:32:52;100040.76;;;13.85;36.62
55022;BME280;68328;35.990;-86.756;2023-04-10T06:35:17;100041.68;;;13.60;38.97
55022;BME280;68328;35.990;-86.756;2023-04-10T06:37:42;100037.38;;;13.64;36.14
55022;BME280;68328;35.990;-86.756;2023-04-10T06:40:09;100036.41;;;13.84;36.68
55022;BME280;68328;35.990;-86.756;2023-04-10T06:42:33;100041.08;;;13.80;38.71
55022;BME280;68328;35.990;-86.756;2023-04-10T06:44:58;100039.58;;;13.70;35.14
55022;BME280;68328;35.990;-86.756;2023-04-10T06:47:23;100043.16;;;13.35;36.03
55022;BME280;68328;35.990;-86.756;2023-04-10T06:49:49;100044.98;;;13.44;37.81
55022;BME280;68328;35.990;-86.756;2023-04-10T06:52:15;100043.95;;;13.67;35.46
55022;BME280;68328;35.990;-86.756;2023-04-10T06:54:39;100043.72;;;13.57;36.40
55022;BME280;68328;35.990;-86.756;2023-04-10T06:57:05;100046.08;;;13.48;36.05
55022;BME280;68328;35.990;-86.756;2023-04-10T06:59:30;100048.65;;;13.75;37.17
55022;BME280;68328;35.990;-86.756;2023-04-10T07:01:55;100048.66;;;13.57;38.35
55022;BME280;68328;35.990;-86.756;2023-04-10T07:04:21;100045.87;;;13.38;38.45
55022;BME280;68328;35.990;-86.756;2023-04-10T07:06:46;100049.09;;;13.39;38.81
55022;BME280;68328;35.990;-86.756;2023-04-10T07:09:11;100048.49;;;13.64;38.60
55022;BME280;68328;35.990;-86.756;2023-04-10T07:11:36;100047.60;;;13.34;37.39
55022;BME280;68328;35.990;-86.756;2023-04-10T07:14:01;100046.94;;;13.64;36.56
55022;BME280;68328;35.990;-86.756;2023-04-10T07:16:27;100049.00;;;13.54;38.44
55022;BME280;68328;35.990;-86.756;2023-04-10T07:18:52;100046.98;;;13.49;37.85
55022;BME280;68328;35.990;-86.756;2023-04-10T07:21:17;100046.66;;;13.43;37.01
55022;BME280;68328;35.990;-86.756;2023-04-10T07:23:43;100043.99;;;13.11;36.60
55022;BME280;68328;35.990;-86.756;2023-04-10T07:26:08;100047.35;;;12.64;37.88
55022;BME280;68328;35.990;-86.756;2023-04-10T07:28:34;100048.94;;;12.65;37.60
55022;BME280;68328;35.990;-86.756;2023-04-10T07:31:00;100046.80;;;12.59;37.12
55022;BME280;68328;35.990;-86.756;2023-04-10T07:33:25;100044.01;;;12.57;36.12
55022;BME280;68328;35.990;-86.756;2023-04-10T07:35:50;100042.86;;;12.71;36.35
55022;BME280;68328;35.990;-86.756;2023-04-10T07:38:15;100047.19;;;12.87;38.27
55022;BME280;68328;35.990;-86.756;2023-04-10T07:40:41;100050.94;;;12.91;38.50
55022;BME280;68328;35.990;-86.756;2023-04-10T07:43:05;100052.70;;;12.93;36.82
55022;BME280;68328;35.990;-86.756;2023-04-10T07:45:31;100053.23;;;12.86;38.20
55022;BME280;68328;35.990;-86.756;2023-04-10T07:47:56;100054.64;;;12.88;38.18
55022;BME280;68328;35.990;-86.756;2023-04-10T07:50:22;100057.28;;;12.87;38.21
55022;BME280;68328;35.990;-86.756;2023-04-10T07:52:48;100056.13;;;12.89;37.77
55022;BME280;68328;35.990;-86.756;2023-04-10T07:55:12;100061.35;;;12.72;39.06
55022;BME280;68328;35.990;-86.756;2023-04-10T07:57:37;100061.36;;;12.67;37.94
55022;BME280;68328;35.990;-86.756;2023-04-10T08:00:03;100060.12;;;12.40;37.34
55022;BME280;68328;35.990;-86.756;2023-04-10T08:02:29;100066.17;;;12.35;40.44
55022;BME280;68328;35.990;-86.756;2023-04-10T08:04:53;100069.51;;;12.79;38.48
55022;BME280;68328;35.990;-86.756;2023-04-10T08:07:21;100070.07;;;12.35;39.27
55022;BME280;68328;35.990;-86.756;2023-04-10T08:09:45;100069.88;;;12.59;37.38
55022;BME280;68328;35.990;-86.756;2023-04-10T08:12:08;100065.26;;;12.90;37.35
55022;BME280;68328;35.990;-86.756;2023-04-10T08:14:34;100068.47;;;12.72;37.85
55022;BME280;68328;35.990;-86.756;2023-04-10T08:16:59;100069.62;;;12.42;38.95
55022;BME280;68328;35.990;-86.756;2023-04-10T08:19:24;100072.56;;;12.37;38.76
55022;BME280;68328;35.990;-86.756;2023-04-10T08:21:50;100078.22;;;12.71;37.60
55022;BME280;68328;35.990;-86.756;2023-04-10T08:24:16;100082.23;;;12.53;38.90
55022;BME280;68328;35.990;-86.756;2023-04-10T08:26:41;100083.92;;;12.81;37.78
55022;BME280;68328;35.990;-86.756;2023-04-10T08:29:06;100086.85;;;12.40;39.67
55022;BME280;68328;35.990;-86.756;2023-04-10T08:31:32;100088.19;;;12.61;38.43
55022;BME280;68328;35.990;-86.756;2023-04-10T08:33:58;100093.15;;;12.73;39.37
55022;BME280;68328;35.990;-86.756;2023-04-10T08:36:22;100096.47;;;12.68;39.72
55022;BME280;68328;35.990;-86.756;2023-04-10T08:38:48;100092.86;;;12.52;39.57
55022;BME280;68328;35.990;-86.756;2023-04-10T08:41:14;100097.85;;;12.66;39.69
55022;BME280;68328;35.990;-86.756;2023-04-10T08:43:38;100097.91;;;12.14;39.91
55022;BME280;68328;35.990;-86.756;2023-04-10T08:46:05;100096.90;;;12.53;39.18
55022;BME280;68328;35.990;-86.756;2023-04-10T08:48:33;100099.59;;;12.43;40.34
55022;BME280;68328;35.990;-86.756;2023-04-10T08:50:54;100101.04;;;12.11;39.27
55022;BME280;68328;35.990;-86.756;2023-04-10T08:53:19;100104.84;;;12.23;39.90
55022;BME280;68328;35.990;-86.756;2023-04-10T08:55:45;100110.57;;;12.12;39.30
55022;BME280;68328;35.990;-86.756;2023-04-10T08:58:10;100110.86;;;12.26;39.25
55022;BME280;68328;35.990;-86.756;2023-04-10T09:00:35;100117.72;;;12.06;39.50
55022;BME280;68328;35.990;-86.756;2023-04-10T09:03:00;100116.69;;;11.73;39.86
55022;BME280;68328;35.990;-86.756;2023-04-10T09:05:26;100116.46;;;11.81;40.81
55022;BME280;68328;35.990;-86.756;2023-04-10T09:07:50;100118.70;;;11.71;42.05
55022;BME280;68328;35.990;-86.756;2023-04-10T09:10:16;100120.35;;;11.82;40.48
55022;BME280;68328;35.990;-86.756;2023-04-10T09:12:45;100120.23;;;11.71;40.10
55022;BME280;68328;35.990;-86.756;2023-04-10T09:15:06;100123.17;;;11.88;40.41
55022;BME280;68328;35.990;-86.756;2023-04-10T09:17:31;100121.44;;;11.94;40.95
55022;BME280;68328;35.990;-86.756;2023-04-10T09:19:56;100118.89;;;11.97;40.42
55022;BME280;68328;35.990;-86.756;2023-04-10T09:22:28;100121.49;;;11.97;42.15
55022;BME280;68328;35.990;-86.756;2023-04-10T09:24:47;100118.02;;;11.97;40.72
55022;BME280;68328;35.990;-86.756;2023-04-10T09:29:41;100115.98;;;12.13;41.75
55022;BME280;68328;35.990;-86.756;2023-04-10T09:32:03;100114.04;;;12.16;40.73
55022;BME280;68328;35.990;-86.756;2023-04-10T09:34:28;100113.26;;;12.16;41.77
55022;BME280;68328;35.990;-86.756;2023-04-10T09:36:55;100112.65;;;12.10;41.96
55022;BME280;68328;35.990;-86.756;2023-04-10T09:39:20;100114.23;;;12.02;41.35
55022;BME280;68328;35.990;-86.756;2023-04-10T09:41:50;100115.21;;;12.20;42.42
55022;BME280;68328;35.990;-86.756;2023-04-10T09:44:11;100117.66;;;12.03;42.75
55022;BME280;68328;35.990;-86.756;2023-04-10T09:46:36;100120.42;;;12.02;42.86
55022;BME280;68328;35.990;-86.756;2023-04-10T09:49:00;100119.74;;;12.01;42.59
55022;BME280;68328;35.990;-86.756;2023-04-10T09:51:30;100119.66;;;11.92;42.11
55022;BME280;68328;35.990;-86.756;2023-04-10T09:53:51;100117.84;;;11.92;42.10
55022;BME280;68328;35.990;-86.756;2023-04-10T09:56:16;100120.08;;;12.05;43.84
55022;BME280;68328;35.990;-86.756;2023-04-10T09:58:42;100121.08;;;12.07;42.75
55022;BME280;68328;35.990;-86.756;2023-04-10T10:01:07;100117.63;;;12.11;42.04
55022;BME280;68328;35.990;-86.756;2023-04-10T10:03:33;100120.59;;;11.91;43.72
55022;BME280;68328;35.990;-86.756;2023-04-10T10:05:58;100124.00;;;12.27;43.61
55022;BME280;68328;35.990;-86.756;2023-04-10T10:08:23;100123.87;;;12.08;43.31
55022;BME280;68328;35.990;-86.756;2023-04-10T10:10:50;100128.16;;;12.27;43.42
55022;BME280;68328;35.990;-86.756;2023-04-10T10:13:17;100130.15;;;11.99;43.09
55022;BME280;68328;35.990;-86.756;2023-04-10T10:15:45;100129.42;;;12.12;43.88
55022;BME280;68328;35.990;-86.756;2023-04-10T10:18:08;100129.05;;;11.83;42.53
55022;BME280;68328;35.990;-86.756;2023-04-10T10:20:31;100131.30;;;12.05;43.88
55022;BME280;68328;35.990;-86.756;2023-04-10T10:22:57;100133.80;;;12.07;43.30
55022;BME280;68328;35.990;-86.756;2023-04-10T10:25:20;100140.89;;;12.01;44.07
55022;BME280;68328;35.990;-86.756;2023-04-10T10:27:46;100137.67;;;11.91;43.46
55022;BME280;68328;35.990;-86.756;2023-04-10T10:30:12;100139.03;;;11.76;43.48
55022;BME280;68328;35.990;-86.756;2023-04-10T10:32:36;100139.55;;;11.96;43.72
55022;BME280;68328;35.990;-86.756;2023-04-10T10:35:01;100139.45;;;11.89;44.27
55022;BME280;68328;35.990;-86.756;2023-04-10T10:37:29;100140.59;;;11.92;43.73
55022;BME280;68328;35.990;-86.756;2023-04-10T10:39:58;100143.92;;;11.93;43.48
55022;BME280;68328;35.990;-86.756;2023-04-10T10:42:24;100148.87;;;11.84;43.62
55022;BME280;68328;35.990;-86.756;2023-04-10T10:44:48;100147.77;;;11.84;43.65
55022;BME280;68328;35.990;-86.756;2023-04-10T10:47:14;100148.80;;;11.80;43.19
55022;BME280;68328;35.990;-86.756;2023-04-10T10:51:58;100151.64;;;11.79;43.53
55022;BME280;68328;35.990;-86.756;2023-04-10T10:54:30;100154.15;;;11.70;43.63
55022;BME280;68328;35.990;-86.756;2023-04-10T10:56:48;100154.83;;;11.61;43.58
55022;BME280;68328;35.990;-86.756;2023-04-10T10:59:14;100157.78;;;11.59;44.04
55022;BME280;68328;35.990;-86.756;2023-04-10T11:06:49;100168.57;;;11.55;43.14
55022;BME280;68328;35.990;-86.756;2023-04-10T11:08:56;100171.68;;;11.52;43.76
55022;BME280;68328;35.990;-86.756;2023-04-10T11:11:21;100177.37;;;11.51;44.65
55022;BME280;68328;35.990;-86.756;2023-04-10T11:16:10;100183.32;;;11.58;43.99
55022;BME280;68328;35.990;-86.756;2023-04-10T11:21:11;100190.01;;;11.13;43.56
55022;BME280;68328;35.990;-86.756;2023-04-10T11:23:27;100190.50;;;11.08;44.08
55022;BME280;68328;35.990;-86.756;2023-04-10T11:25:53;100191.52;;;11.10;45.37
55022;BME280;68328;35.990;-86.756;2023-04-10T11:30:44;100195.92;;;11.19;43.69
55022;BME280;68328;35.990;-86.756;2023-04-10T11:33:09;100198.56;;;11.68;44.62
55022;BME280;68328;35.990;-86.756;2023-04-10T11:35:34;100197.39;;;11.56;44.82
55022;BME280;68328;35.990;-86.756;2023-04-10T11:38:12;100201.45;;;11.40;44.13
55022;BME280;68328;35.990;-86.756;2023-04-10T11:40:25;100204.76;;;11.40;44.47
55022;BME280;68328;35.990;-86.756;2023-04-10T11:42:50;100204.09;;;11.43;45.17
55022;BME280;68328;35.990;-86.756;2023-04-10T11:45:25;100208.57;;;11.46;43.85
55022;BME280;68328;35.990;-86.756;2023-04-10T11:47:40;100212.39;;;11.58;44.74
55022;BME280;68328;35.990;-86.756;2023-04-10T11:50:07;100214.21;;;11.42;44.73
55022;BME280;68328;35.990;-86.756;2023-04-10T11:52:32;100217.68;;;11.46;44.99
55022;BME280;68328;35.990;-86.756;2023-04-10T11:54:57;100219.19;;;11.61;43.84
55022;BME280;68328;35.990;-86.756;2023-04-10T11:57:23;100223.05;;;11.75;44.59
55022;BME280;68328;35.990;-86.756;2023-04-10T11:59:49;100225.67;;;11.69;42.84
55022;BME280;68328;35.990;-86.756;2023-04-10T12:02:14;100227.51;;;11.52;44.30
55022;BME280;68328;35.990;-86.756;2023-04-10T12:04:38;100228.17;;;11.82;43.28
55022;BME280;68328;35.990;-86.756;2023-04-10T12:07:03;100230.66;;;11.63;44.70
55022;BME280;68328;35.990;-86.756;2023-04-10T12:09:29;100237.38;;;12.04;43.49
55022;BME280;68328;35.990;-86.756;2023-04-10T12:11:55;100241.24;;;12.24;44.12
55022;BME280;68328;35.990;-86.756;2023-04-10T12:14:20;100245.57;;;11.86;43.74
55022;BME280;68328;35.990;-86.756;2023-04-10T12:16:44;100246.83;;;12.04;43.42
55022;BME280;68328;35.990;-86.756;2023-04-10T12:19:10;100249.02;;;12.24;43.96
55022;BME280;68328;35.990;-86.756;2023-04-10T12:21:36;100249.97;;;12.37;44.65
55022;BME280;68328;35.990;-86.756;2023-04-10T12:24:00;100248.93;;;12.56;43.57
55022;BME280;68328;35.990;-86.756;2023-04-10T12:26:26;100251.50;;;12.48;43.91
55022;BME280;68328;35.990;-86.756;2023-04-10T12:28:52;100253.28;;;12.81;42.94
55022;BME280;68328;35.990;-86.756;2023-04-10T12:31:17;100254.34;;;13.05;43.58
55022;BME280;68328;35.990;-86.756;2023-04-10T12:33:44;100255.37;;;12.98;43.51
55022;BME280;68328;35.990;-86.756;2023-04-10T12:36:20;100257.13;;;13.20;44.04
55022;BME280;68328;35.990;-86.756;2023-04-10T12:38:37;100253.96;;;13.23;43.91
55022;BME280;68328;35.990;-86.756;2023-04-10T12:40:58;100259.11;;;13.50;44.23